Time;durP1;ratioP1;P1;durP2;ratioP2;P2;SDS_P1;SDS_P2;PMS_P1;PMS_P2;Temp;Humidity;BMP_temperature;BMP_pressure;BME280_temperature;BME280_humidity;BME280_pressure;Samples;Min_cycle;Max_cycle;Signal;HPM_P1;HPM_P2
2022/12/15 00:39:35;;;;;;;12.98;6.20;;;-2.50;99.90;;;;;;5017937;28;20052;-79
2022/12/15 00:42:01;;;;;;;13.38;6.57;;;-2.50;99.90;;;;;;5032022;28;20033;-79
2022/12/15 00:44:27;;;;;;;13.80;6.55;;;-2.60;99.90;;;;;;5015728;28;20037;-79
2022/12/15 00:46:55;;;;;;;12.63;5.65;;;-2.60;99.90;;;;;;5032355;28;20043;-79
2022/12/15 01:22:37;;;;;;;11.52;6.35;;;-2.50;99.90;;;;;;5031446;28;20038;-79
2022/12/15 01:25:03;;;;;;;;;;;-0.80;99.90;;;;;;5015655;28;20112;-79
2022/12/15 01:27:29;;;;;;;13.27;6.07;;;-2.50;99.90;;;;;;5030873;28;19917;-79
2022/12/15 01:29:55;;;;;;;13.35;6.30;;;-2.50;99.90;;;;;;5031307;28;20052;-79
2022/12/15 01:32:20;;;;;;;14.68;6.00;;;-2.50;99.90;;;;;;5014049;28;20042;-79
2022/12/15 01:34:46;;;;;;;14.53;6.40;;;-1.30;99.90;;;;;;5030989;28;20056;-79
2022/12/15 01:37:12;;;;;;;12.52;6.18;;;-2.40;99.90;;;;;;5030302;28;20286;-78
2022/12/15 01:42:27;;;;;;;9.82;5.72;;;-2.20;99.90;;;;;;5011320;28;20037;-79
2022/12/15 01:45:13;;;;;;;11.25;6.05;;;-2.40;99.90;;;;;;5029489;28;20060;-78
2022/12/15 01:47:38;;;;;;;13.98;6.20;;;-2.40;99.90;;;;;;5027223;28;20053;-78
2022/12/15 01:50:07;;;;;;;12.30;5.60;;;-1.30;99.90;;;;;;5013440;28;20041;-78
2022/12/15 01:52:33;;;;;;;10.27;5.18;;;-2.40;99.90;;;;;;5013618;28;20497;-79
2022/12/15 01:54:59;;;;;;;11.80;5.10;;;-2.40;99.90;;;;;;5029594;28;20043;-79
2022/12/15 01:57:30;;;;;;;10.55;5.30;;;-2.40;99.90;;;;;;5013562;28;20042;-79
2022/12/15 02:00:00;;;;;;;10.93;5.50;;;-2.30;99.90;;;;;;5029917;28;20042;-79
2022/12/15 02:02:29;;;;;;;12.73;5.15;;;-0.70;99.90;;;;;;5029700;28;20363;-78
2022/12/15 02:04:57;;;;;;;13.23;5.85;;;-0.80;99.90;;;;;;5013756;28;20044;-80
2022/12/15 02:07:23;;;;;;;12.05;6.60;;;-2.30;99.90;;;;;;5029819;28;20033;-79
2022/12/15 02:09:51;;;;;;;14.23;7.30;;;-2.30;99.90;;;;;;5029658;28;20152;-78
2022/12/15 02:12:22;;;;;;;13.38;7.00;;;-2.40;99.90;;;;;;5013306;28;20454;-79
2022/12/15 02:14:53;;;;;;;14.75;7.07;;;-2.40;99.90;;;;;;5029563;28;20149;-79
2022/12/15 02:17:58;;;;;;;13.90;6.65;;;-2.40;99.90;;;;;;5029750;28;20029;-85
2022/12/15 02:20:39;;;;;;;14.93;6.60;;;-2.40;99.90;;;;;;5025490;28;20037;-84
2022/12/15 02:23:26;;;;;;;13.05;6.60;;;-2.40;99.90;;;;;;5030686;28;20044;-85
2022/12/15 02:25:55;;;;;;;;;;;-2.30;99.90;;;;;;5028183;28;20547;-86
2022/12/15 02:28:41;;;;;;;17.98;6.88;;;-2.50;99.90;;;;;;5030020;28;19917;-85
2022/12/15 02:34:10;;;;;;;14.25;7.13;;;-2.50;99.90;;;;;;5030852;28;20041;-84
2022/12/15 02:36:39;;;;;;;13.00;6.78;;;-2.50;99.90;;;;;;5012192;28;20045;-83
2022/12/15 02:39:05;;;;;;;15.63;7.05;;;-2.60;99.90;;;;;;5030533;28;20517;-85
2022/12/15 02:41:43;;;;;;;13.38;6.78;;;-2.70;99.90;;;;;;5030295;28;20033;-84
2022/12/15 02:44:23;;;;;;;13.85;6.65;;;-2.60;99.90;;;;;;5028850;28;20045;-84
2022/12/15 02:47:06;;;;;;;13.05;6.25;;;-2.60;99.90;;;;;;5030239;28;20040;-84
2022/12/15 02:49:48;;;;;;;11.10;5.35;;;-2.70;99.90;;;;;;5027436;28;20044;-84
2022/12/15 02:52:56;;;;;;;12.30;5.40;;;-2.70;99.90;;;;;;5028900;28;20044;-83
2022/12/15 02:55:41;;;;;;;;;;;-2.70;99.90;;;;;;5030237;28;20038;-84
2022/12/15 02:58:40;;;;;;;9.15;4.65;;;-2.70;99.90;;;;;;5028625;28;20361;-84
2022/12/15 03:01:24;;;;;;;8.77;4.55;;;-2.70;99.90;;;;;;5026720;28;20504;-84
2022/12/15 03:03:51;;;;;;;9.18;4.85;;;-2.70;99.90;;;;;;5013671;28;20084;-85
2022/12/15 03:06:18;;;;;;;10.27;3.88;;;-2.70;99.90;;;;;;5030711;28;20501;-84
2022/12/15 03:08:43;;;;;;;8.02;3.80;;;-2.70;99.90;;;;;;5013831;28;20512;-84
2022/12/15 03:11:09;;;;;;;9.65;4.30;;;-1.40;99.90;;;;;;5014088;28;20049;-84
2022/12/15 03:13:35;;;;;;;12.95;4.30;;;-2.70;99.90;;;;;;5030102;28;20116;-85
2022/12/15 03:16:00;;;;;;;11.68;4.90;;;-2.70;99.90;;;;;;4997188;28;20033;-85
2022/12/15 03:18:26;;;;;;;17.35;5.55;;;-2.70;99.90;;;;;;5029362;28;20034;-85
2022/12/15 03:20:52;;;;;;;11.02;4.80;;;-1.90;99.90;;;;;;5013042;28;20107;-86
2022/12/15 03:23:18;;;;;;;9.02;3.95;;;-2.80;99.90;;;;;;5029608;28;20033;-83
2022/12/15 03:25:45;;;;;;;7.68;4.57;;;-2.80;99.90;;;;;;5029400;28;20524;-85
2022/12/15 03:28:11;;;;;;;;;;;-2.80;99.90;;;;;;5011711;28;20055;-85
2022/12/15 03:30:37;;;;;;;8.40;4.13;;;-2.90;99.90;;;;;;5030198;28;19923;-85
2022/12/15 03:33:02;;;;;;;6.97;3.47;;;-1.50;99.90;;;;;;5029767;28;20098;-85
2022/12/15 03:35:29;;;;;;;11.38;3.53;;;-2.80;99.90;;;;;;5029568;28;20049;-84
2022/12/15 03:37:55;;;;;;;7.03;3.15;;;-1.60;99.90;;;;;;5029609;28;20049;-84
2022/12/15 03:40:21;;;;;;;7.03;3.33;;;-3.00;99.90;;;;;;5030274;28;20037;-84
2022/12/15 03:42:49;;;;;;;7.82;3.30;;;-2.80;99.90;;;;;;5026656;28;20044;-84
2022/12/15 03:45:23;;;;;;;7.55;3.20;;;-2.80;99.90;;;;;;5029411;28;20037;-84
2022/12/15 03:47:50;;;;;;;6.45;3.40;;;-2.80;99.90;;;;;;5012807;28;20470;-84
2022/12/15 03:50:19;;;;;;;8.43;3.20;;;-2.80;99.90;;;;;;5013001;28;20080;-84
2022/12/15 03:52:59;;;;;;;8.73;3.38;;;-2.90;99.90;;;;;;5029819;28;20091;-84
2022/12/15 03:55:27;;;;;;;7.93;3.40;;;-3.00;99.90;;;;;;5044610;28;20040;-84
2022/12/15 03:57:53;;;;;;;8.70;3.38;;;-2.90;99.90;;;;;;5013341;28;20095;-84
2022/12/15 04:00:21;;;;;;;5.80;3.03;;;-2.90;99.90;;;;;;5029678;28;20056;-85
2022/12/15 04:02:47;;;;;;;6.72;2.90;;;-3.00;99.90;;;;;;5012217;28;20049;-85
2022/12/15 04:05:28;;;;;;;7.53;2.92;;;-1.80;99.90;;;;;;5029472;28;20068;-85
2022/12/15 04:07:55;;;;;;;8.48;3.13;;;-3.00;99.90;;;;;;5030654;28;20033;-85
2022/12/15 04:10:22;;;;;;;5.20;2.75;;;-2.90;99.90;;;;;;5000973;28;20037;-85
2022/12/15 04:12:48;;;;;;;8.70;3.20;;;-2.90;99.90;;;;;;5015911;28;20049;-85
2022/12/15 04:15:14;;;;;;;7.25;3.10;;;-2.90;99.90;;;;;;5033226;28;20124;-85
2022/12/15 04:17:40;;;;;;;7.50;3.63;;;-2.80;99.90;;;;;;5016816;28;20069;-85
2022/12/15 04:20:10;;;;;;;;;;;-2.80;99.90;;;;;;5032179;28;20041;-84
2022/12/15 04:22:41;;;;;;;6.90;2.80;;;-2.70;99.90;;;;;;5034041;28;19921;-85
2022/12/15 05:33:56;;;;;;;8.95;5.57;;;-2.90;99.90;;;;;;5031852;28;20056;-80
2022/12/15 05:36:22;;;;;;;;;;;-2.80;99.90;;;;;;5015741;28;20378;-80
2022/12/15 05:38:49;;;;;;;13.30;5.03;;;-2.80;99.90;;;;;;5014539;28;19924;-80
2022/12/15 05:41:17;;;;;;;13.32;5.43;;;-1.00;99.90;;;;;;5029586;28;20489;-79
2022/12/15 05:43:44;;;;;;;12.45;4.93;;;-2.90;99.90;;;;;;5014700;28;20041;-78
2022/12/15 05:46:10;;;;;;;14.73;6.25;;;-2.80;99.90;;;;;;5031139;28;20107;-78
2022/12/15 05:48:35;;;;;;;10.93;5.03;;;-2.80;99.90;;;;;;5014478;28;20136;-79
2022/12/15 05:51:09;;;;;;;10.82;4.45;;;-1.70;99.90;;;;;;5014995;28;20044;-77
2022/12/15 05:53:39;;;;;;;8.20;4.88;;;-2.80;99.90;;;;;;5030862;28;20266;-75
2022/12/15 05:56:13;;;;;;;13.57;5.38;;;-2.70;99.90;;;;;;5030937;28;20045;-77
2022/12/15 05:58:40;;;;;;;10.68;4.93;;;-2.60;99.90;;;;;;5013939;28;20132;-75
2022/12/15 06:01:14;;;;;;;13.23;6.63;;;-2.50;99.90;;;;;;5028011;28;20104;-76
2022/12/15 06:03:41;;;;;;;11.80;5.70;;;-2.40;99.90;;;;;;5026353;28;20041;-76
2022/12/15 06:06:07;;;;;;;;;;;-2.40;99.90;;;;;;5014152;28;20033;-75
2022/12/15 06:08:34;;;;;;;11.30;5.40;;;-2.30;99.90;;;;;;5029596;28;19917;-75
2022/12/15 06:11:00;;;;;;;13.32;5.25;;;-2.20;99.90;;;;;;5013619;28;20315;-75
2022/12/15 06:13:30;;;;;;;10.50;5.13;;;-2.10;99.90;;;;;;5014598;28;20504;-75
2022/12/15 06:16:00;;;;;;;8.65;4.55;;;-1.40;99.90;;;;;;5029787;28;20119;-75
2022/12/15 06:18:29;;;;;;;11.88;6.28;;;-1.80;99.90;;;;;;5029980;28;20457;-75
2022/12/15 06:21:00;;;;;;;13.00;6.47;;;-1.70;99.90;;;;;;5029518;28;20128;-75
2022/12/15 06:23:27;;;;;;;12.05;6.18;;;-1.70;99.90;;;;;;5013837;28;20052;-75
2022/12/15 06:25:54;;;;;;;11.65;6.95;;;-1.70;99.90;;;;;;5027292;28;20030;-75
2022/12/15 06:28:22;;;;;;;11.45;5.95;;;-1.50;99.90;;;;;;5030235;28;20033;-75
2022/12/15 06:31:01;;;;;;;10.90;6.07;;;-1.80;99.90;;;;;;5029376;28;20048;-75
2022/12/15 06:33:28;;;;;;;15.38;6.03;;;-1.80;99.90;;;;;;5031504;28;20049;-75
2022/12/15 06:35:54;;;;;;;14.25;5.78;;;-1.70;99.90;;;;;;5029741;28;20049;-75
2022/12/15 06:38:20;;;;;;;9.68;4.95;;;-1.70;99.90;;;;;;5030058;28;20045;-75
2022/12/15 06:40:54;;;;;;;11.02;4.95;;;-1.70;99.90;;;;;;5029458;28;20041;-75
2022/12/15 06:43:19;;;;;;;9.50;5.18;;;-1.70;99.90;;;;;;5030233;28;20132;-75
2022/12/15 06:45:50;;;;;;;10.20;5.77;;;-1.60;99.90;;;;;;5029503;28;20116;-75
2022/12/15 06:48:16;;;;;;;9.38;5.03;;;-0.90;99.90;;;;;;5013440;28;20292;-75
2022/12/15 06:50:44;;;;;;;11.45;4.72;;;-1.50;99.90;;;;;;5029900;28;20045;-75
2022/12/15 06:53:10;;;;;;;9.95;4.85;;;-1.50;99.90;;;;;;5029602;28;20075;-75
2022/12/15 06:55:36;;;;;;;;;;;-1.40;99.90;;;;;;5030111;28;20049;-76
2022/12/15 06:58:01;;;;;;;11.55;4.93;;;-1.40;99.90;;;;;;5029350;28;19928;-76
2022/12/15 07:00:27;;;;;;;11.25;4.88;;;-1.40;99.90;;;;;;4997059;28;20045;-75
2022/12/15 07:02:53;;;;;;;7.95;4.50;;;-1.40;99.90;;;;;;5029720;28;20038;-76
2022/12/15 07:05:20;;;;;;;9.40;5.00;;;-1.40;99.90;;;;;;5029485;28;20048;-76
2022/12/15 07:07:47;;;;;;;9.50;4.88;;;-1.30;99.90;;;;;;5030563;28;20176;-76
2022/12/15 07:10:12;;;;;;;13.48;5.57;;;-1.30;99.90;;;;;;5029370;28;20037;-76
2022/12/15 07:12:38;;;;;;;11.57;5.50;;;-1.40;99.90;;;;;;5027205;28;20037;-76
2022/12/15 07:15:06;;;;;;;9.00;4.70;;;-1.10;99.90;;;;;;5028787;28;20033;-76
2022/12/15 07:17:36;;;;;;;11.10;5.65;;;-1.30;99.90;;;;;;5029192;28;20053;-76
2022/12/15 07:20:06;;;;;;;9.82;5.28;;;-1.40;99.90;;;;;;5028694;28;20037;-76
2022/12/15 07:22:32;;;;;;;13.85;5.22;;;-1.30;99.90;;;;;;5029402;28;20045;-76
2022/12/15 07:24:58;;;;;;;;;;;-1.30;99.90;;;;;;5012719;28;20034;-76
2022/12/15 07:27:24;;;;;;;10.90;5.68;;;-1.40;99.90;;;;;;5029606;28;20335;-76
2022/12/15 07:29:50;;;;;;;11.20;5.53;;;-1.30;99.90;;;;;;5028952;28;20049;-75
2022/12/15 07:32:19;;;;;;;8.73;5.38;;;-0.70;99.90;;;;;;5029495;28;20128;-75
2022/12/15 07:34:45;;;;;;;;;;;-1.40;99.90;;;;;;5012735;28;20179;-76
2022/12/15 07:37:11;;;;;;;11.25;5.75;;;-1.50;99.90;;;;;;5028918;28;20000;-75
2022/12/15 07:39:36;;;;;;;10.68;5.10;;;-1.50;99.90;;;;;;5029048;28;20075;-75
2022/12/15 07:42:02;;;;;;;11.77;5.22;;;-1.60;99.90;;;;;;5030213;28;20037;-75
2022/12/15 07:44:28;;;;;;;11.02;5.32;;;-1.50;99.90;;;;;;5033358;28;20034;-76
2022/12/15 07:46:54;;;;;;;10.23;5.40;;;-1.50;99.90;;;;;;5016317;28;20592;-75
2022/12/15 07:49:20;;;;;;;10.90;5.15;;;-0.30;99.90;;;;;;5033218;28;20292;-75
2022/12/15 07:51:46;;;;;;;9.50;4.85;;;-1.40;99.90;;;;;;5032589;28;20091;-75
2022/12/15 07:54:13;;;;;;;17.48;6.30;;;-1.30;99.90;;;;;;5032996;28;20099;-76
2022/12/15 07:56:39;;;;;;;13.45;5.60;;;-1.30;99.90;;;;;;5033160;28;20041;-75
2022/12/15 07:59:06;;;;;;;10.57;5.05;;;-1.20;99.90;;;;;;5032611;28;20038;-76
2022/12/15 08:01:32;;;;;;;7.72;5.03;;;-1.20;99.90;;;;;;5032898;28;20034;-76
2022/12/15 08:03:58;;;;;;;12.10;5.53;;;-1.20;99.90;;;;;;5032283;28;20041;-76
2022/12/15 08:06:24;;;;;;;13.23;5.75;;;-1.10;99.90;;;;;;5016151;28;20119;-76
2022/12/15 08:08:50;;;;;;;16.35;5.65;;;-1.00;99.90;;;;;;5032556;28;20037;-76
2022/12/15 08:11:16;;;;;;;10.77;4.97;;;-1.00;99.90;;;;;;5032440;28;20037;-75
2022/12/15 08:13:43;;;;;;;10.27;5.45;;;-1.00;99.90;;;;;;5032708;28;20136;-76
2022/12/15 08:16:10;;;;;;;9.10;5.55;;;-0.90;99.90;;;;;;5032116;28;20043;-76
2022/12/15 08:18:35;;;;;;;;;;;-0.90;99.90;;;;;;5033151;28;20049;-75
2022/12/15 08:21:09;;;;;;;12.82;5.40;;;-0.80;99.90;;;;;;5032263;28;19921;-75
2022/12/15 08:23:35;;;;;;;11.52;5.35;;;-0.90;99.90;;;;;;5014050;28;20084;-75
2022/12/15 08:26:14;;;;;;;10.63;4.90;;;-0.90;99.90;;;;;;5031912;28;20068;-75
2022/12/15 08:28:41;;;;;;;12.38;4.85;;;-0.80;99.90;;;;;;5032165;28;20092;-84
2022/12/15 08:31:16;;;;;;;12.55;5.20;;;-0.60;99.90;;;;;;5032738;28;20037;-83
2022/12/15 08:33:43;;;;;;;11.98;4.68;;;-0.10;99.90;;;;;;5031212;28;20042;-84
2022/12/15 08:36:12;;;;;;;11.40;4.93;;;0.20;99.90;;;;;;5032653;28;20049;-84
2022/12/15 08:38:39;;;;;;;11.73;5.43;;;0.90;99.90;;;;;;5016550;28;20056;-83
2022/12/15 08:41:10;;;;;;;9.93;5.00;;;1.50;99.90;;;;;;5016793;28;20116;-84
2022/12/15 08:43:36;;;;;;;7.65;4.00;;;1.40;99.90;;;;;;5017430;28;20071;-84
2022/12/15 08:46:03;;;;;;;7.35;4.75;;;1.90;99.90;;;;;;5032202;28;20038;-83
2022/12/15 08:48:29;;;;;;;5.45;3.92;;;2.20;99.90;;;;;;5032393;28;20782;-84
2022/12/15 08:50:56;;;;;;;9.80;4.25;;;2.60;99.90;;;;;;5032361;28;20194;-83
2022/12/15 08:53:22;;;;;;;8.70;4.40;;;2.60;99.90;;;;;;5032038;28;20045;-84
2022/12/15 08:55:47;;;;;;;11.27;4.23;;;2.70;99.90;;;;;;5032620;28;20068;-84
2022/12/15 08:58:13;;;;;;;11.20;4.40;;;2.90;99.90;;;;;;5015313;28;20281;-84
2022/12/15 09:00:39;;;;;;;9.37;4.87;;;3.00;99.90;;;;;;5032598;28;20307;-84
2022/12/15 09:03:04;;;;;;;11.37;5.50;;;3.30;99.90;;;;;;5032059;28;20532;-84
2022/12/15 09:05:36;;;;;;;6.10;3.90;;;3.30;99.90;;;;;;5032566;28;20748;-84
2022/12/15 09:08:02;;;;;;;8.63;4.38;;;3.00;99.90;;;;;;5014423;28;20367;-84
2022/12/15 09:10:28;;;;;;;8.07;4.40;;;2.70;99.90;;;;;;5031981;28;20063;-84
2022/12/15 09:12:54;;;;;;;9.98;4.45;;;2.70;99.90;;;;;;5031976;28;20041;-83
2022/12/15 09:15:20;;;;;;;9.37;5.00;;;2.80;99.90;;;;;;5031894;28;20038;-84
2022/12/15 09:17:46;;;;;;;10.73;5.25;;;4.20;99.90;;;;;;5031867;28;20124;-84
2022/12/15 09:20:13;;;;;;;8.35;4.70;;;3.20;99.90;;;;;;5031202;28;20103;-83
2022/12/15 09:22:40;;;;;;;7.30;4.28;;;3.10;99.90;;;;;;5032014;28;20041;-82
2022/12/15 09:25:06;;;;;;;14.25;5.30;;;2.80;99.90;;;;;;5031500;28;20231;-84
2022/12/15 09:27:33;;;;;;;7.15;4.30;;;2.50;99.90;;;;;;5031887;28;20831;-84
2022/12/15 09:30:00;;;;;;;6.97;4.40;;;2.20;99.90;;;;;;5031071;28;20049;-84
2022/12/15 09:32:25;;;;;;;11.75;4.70;;;2.20;99.90;;;;;;5014866;28;20122;-84
2022/12/15 09:34:52;;;;;;;11.17;4.70;;;2.40;99.90;;;;;;5031352;28;20509;-84
2022/12/15 09:37:18;;;;;;;9.85;4.80;;;2.10;99.90;;;;;;5014340;28;20354;-83
2022/12/15 09:39:44;;;;;;;7.22;4.78;;;2.80;99.90;;;;;;5031613;28;20041;-84
2022/12/15 09:42:27;;;;;;;13.27;6.50;;;2.40;99.90;;;;;;5031309;28;20044;-84
2022/12/15 09:45:30;;;;;;;12.98;5.93;;;2.80;99.90;;;;;;5031739;28;20279;-83
2022/12/15 09:48:01;;;;;;;7.55;4.78;;;3.10;99.90;;;;;;5003537;28;20042;-84
2022/12/15 09:50:34;;;;;;;9.88;4.35;;;3.60;99.90;;;;;;5030909;28;20038;-84
2022/12/15 09:53:01;;;;;;;11.82;6.10;;;4.20;99.90;;;;;;5028981;28;20045;-84
2022/12/15 09:55:30;;;;;;;7.03;4.45;;;4.90;99.90;;;;;;5030768;28;20049;-84
2022/12/15 09:58:06;;;;;;;9.05;4.55;;;5.50;99.90;;;;;;5030776;28;20615;-84
2022/12/15 10:00:39;;;;;;;10.48;5.07;;;6.00;99.90;;;;;;5030713;28;20052;-84
2022/12/15 10:03:24;;;;;;;12.85;4.43;;;6.50;99.90;;;;;;5014207;28;20489;-84
2022/12/15 10:06:19;;;;;;;10.25;5.07;;;6.80;99.90;;;;;;5028909;28;20555;-84
2022/12/15 10:09:28;;;;;;;13.07;4.60;;;7.10;99.90;;;;;;5029646;28;20041;-84
2022/12/15 10:11:56;;;;;;;9.02;4.47;;;7.40;99.90;;;;;;4993307;28;20121;-83
2022/12/15 10:14:40;;;;;;;8.02;4.38;;;7.80;99.90;;;;;;4993542;28;20100;-84
2022/12/15 10:17:17;;;;;;;7.70;4.40;;;8.00;99.90;;;;;;5013960;28;20080;-84
2022/12/15 10:20:16;;;;;;;8.13;4.78;;;8.20;99.90;;;;;;5028959;28;20612;-84
2022/12/15 10:22:41;;;;;;;8.90;4.55;;;8.30;99.90;;;;;;5030187;28;20046;-84
2022/12/15 10:25:32;;;;;;;6.72;4.13;;;9.00;99.90;;;;;;5031251;28;20358;-84
2022/12/15 10:28:10;;;;;;;8.20;3.88;;;8.60;99.90;;;;;;5030460;28;20044;-84
2022/12/15 10:30:49;;;;;;;7.43;4.18;;;8.80;99.90;;;;;;5026433;28;20055;-85
2022/12/15 10:33:27;;;;;;;8.10;4.32;;;8.50;99.90;;;;;;5030551;28;20089;-84
2022/12/15 10:35:54;;;;;;;8.27;4.15;;;8.40;99.90;;;;;;5030511;28;20076;-84
2022/12/15 10:38:39;;;;;;;10.57;3.92;;;8.20;99.90;;;;;;5030385;28;20045;-84
2022/12/15 10:41:10;;;;;;;12.40;4.20;;;8.10;99.90;;;;;;5030259;28;20116;-84
2022/12/15 10:43:45;;;;;;;7.25;4.03;;;8.00;99.90;;;;;;5030953;28;20155;-84
2022/12/15 10:46:20;;;;;;;8.30;3.78;;;8.30;99.90;;;;;;5014097;28;20490;-84
2022/12/15 10:48:56;;;;;;;11.32;4.68;;;8.50;99.90;;;;;;5028283;28;20558;-84
2022/12/15 10:51:25;;;;;;;6.90;4.13;;;8.70;99.90;;;;;;5030587;28;20490;-84
2022/12/15 10:54:03;;;;;;;6.53;3.85;;;8.80;99.90;;;;;;5030545;28;20067;-83
2022/12/15 10:56:30;;;;;;;7.80;4.45;;;9.00;99.90;;;;;;5046429;28;20041;-84
2022/12/15 10:58:59;;;;;;;10.35;4.05;;;9.20;99.90;;;;;;5014474;28;20560;-84
2022/12/15 11:01:27;;;;;;;8.45;3.60;;;9.40;99.90;;;;;;5028344;28;20041;-84
2022/12/15 11:03:54;;;;;;;10.73;4.50;;;9.70;99.90;;;;;;5030724;28;20525;-83
2022/12/15 11:06:22;;;;;;;8.27;4.03;;;9.70;99.90;;;;;;5030148;28;20048;-84
2022/12/15 11:08:50;;;;;;;6.35;3.60;;;10.10;99.90;;;;;;5028240;28;20034;-84
2022/12/15 11:14:23;;;;;;;8.57;3.95;;;10.20;99.90;;;;;;5030073;28;20124;-84
2022/12/15 11:16:54;;;;;;;7.68;3.97;;;10.20;99.90;;;;;;5010141;28;20175;-84
2022/12/15 11:19:48;;;;;;;9.30;4.68;;;10.40;99.90;;;;;;5030113;28;20098;-83
2022/12/15 11:22:45;;;;;;;6.72;3.70;;;10.40;99.90;;;;;;5018503;28;20139;-83
2022/12/15 11:25:32;;;;;;;12.77;4.13;;;10.70;99.90;;;;;;5022050;28;20068;-83
2022/12/15 11:28:03;;;;;;;7.30;3.92;;;10.80;99.90;;;;;;5028730;28;20042;-83
2022/12/15 11:30:37;;;;;;;8.27;3.95;;;10.90;99.90;;;;;;5028304;28;20112;-84
2022/12/15 11:33:03;;;;;;;8.25;3.90;;;11.10;99.90;;;;;;5030127;28;20077;-84
2022/12/15 11:35:47;;;;;;;7.45;3.60;;;11.00;99.90;;;;;;5030065;28;20448;-82
2022/12/15 11:38:24;;;;;;;6.72;3.75;;;11.00;99.90;;;;;;5026949;28;20049;-84
2022/12/15 11:40:53;;;;;;;7.22;3.58;;;10.80;99.90;;;;;;5027029;28;20050;-84
2022/12/15 11:43:37;;;;;;;6.68;3.25;;;10.90;99.90;;;;;;5030130;28;20038;-84
2022/12/15 11:46:35;;;;;;;6.60;3.15;;;11.00;99.90;;;;;;5029454;28;20112;-84
2022/12/15 11:49:25;;;;;;;9.40;3.55;;;11.00;99.90;;;;;;5028344;28;20077;-85
2022/12/15 11:52:07;;;;;;;9.82;3.15;;;11.20;99.90;;;;;;5026111;28;20084;-84
2022/12/15 11:54:58;;;;;;;6.72;3.50;;;11.20;99.90;;;;;;5028515;28;20037;-84
2022/12/15 11:57:56;;;;;;;7.20;3.47;;;11.30;99.90;;;;;;5044039;28;20045;-85
2022/12/15 12:00:22;;;;;;;7.03;3.70;;;11.40;99.90;;;;;;5029089;28;20081;-84
2022/12/15 12:02:51;;;;;;;;;;;11.50;99.90;;;;;;5030324;28;20398;-82
2022/12/15 12:05:51;;;;;;;8.02;3.22;;;11.50;99.90;;;;;;5029968;28;19966;-84
2022/12/15 12:08:22;;;;;;;5.85;3.08;;;11.50;99.90;;;;;;5027212;28;20503;-84
2022/12/15 12:10:58;;;;;;;7.38;3.35;;;11.70;99.90;;;;;;5030276;28;20494;-84
2022/12/15 12:13:37;;;;;;;8.73;3.60;;;11.50;99.90;;;;;;5029430;28;20037;-84
2022/12/15 12:16:16;;;;;;;6.53;3.30;;;11.50;99.90;;;;;;5028281;28;20502;-84
2022/12/15 12:18:58;;;;;;;8.88;3.40;;;11.30;99.90;;;;;;5025920;28;20497;-84
2022/12/15 12:21:29;;;;;;;8.32;3.60;;;11.20;99.90;;;;;;5029652;28;20042;-85
2022/12/15 12:24:16;;;;;;;9.50;4.00;;;11.30;99.90;;;;;;5030403;28;20049;-84
2022/12/15 12:26:45;;;;;;;10.38;4.13;;;11.40;99.90;;;;;;5026314;28;20076;-84
2022/12/15 12:29:43;;;;;;;8.20;3.33;;;11.50;99.90;;;;;;5032646;28;20377;-85
2022/12/15 12:32:21;;;;;;;5.75;3.40;;;11.70;99.90;;;;;;5024239;28;20041;-84
2022/12/15 12:35:26;;;;;;;7.22;3.72;;;11.80;99.90;;;;;;5032579;28;20045;-85
2022/12/15 12:38:09;;;;;;;8.90;3.47;;;11.90;99.90;;;;;;5032523;28;20076;-86
2022/12/15 12:40:53;;;;;;;7.93;3.30;;;11.80;99.90;;;;;;5033007;28;20052;-85
2022/12/15 12:43:45;;;;;;;5.32;3.35;;;11.20;99.90;;;;;;5030223;28;20029;-85
2022/12/15 12:46:22;;;;;;;8.40;3.67;;;10.10;99.90;;;;;;5028065;28;20029;-85
2022/12/15 12:49:10;;;;;;;7.43;3.00;;;9.30;99.90;;;;;;5033286;28;20124;-85
2022/12/15 12:51:37;;;;;;;;;;;8.80;99.90;;;;;;5030247;28;20124;-85
2022/12/15 12:54:38;;;;;;;6.88;3.17;;;8.30;99.90;;;;;;5032965;28;19917;-85
2022/12/15 12:57:10;;;;;;;7.03;3.45;;;7.90;99.90;;;;;;5033393;28;20405;-85
2022/12/15 12:59:42;;;;;;;8.52;3.40;;;7.80;99.90;;;;;;5035393;28;20064;-86
2022/12/15 13:02:20;;;;;;;6.43;3.10;;;8.10;99.90;;;;;;5033517;28;20037;-86
2022/12/15 13:05:24;;;;;;;11.20;3.08;;;7.20;99.90;;;;;;5033261;28;20037;-85
2022/12/15 13:08:06;;;;;;;5.03;2.97;;;7.10;99.90;;;;;;5027121;28;20072;-85
2022/12/15 13:10:35;;;;;;;8.20;3.42;;;6.80;99.90;;;;;;5029223;28;20045;-84
2022/12/15 13:13:29;;;;;;;8.75;3.35;;;6.70;99.90;;;;;;5032328;28;20045;-84
2022/12/15 13:16:16;;;;;;;8.82;2.90;;;6.50;99.90;;;;;;5030674;28;20087;-84
2022/12/15 13:19:03;;;;;;;9.18;3.00;;;6.40;99.90;;;;;;5032746;28;20041;-85
2022/12/15 13:21:41;;;;;;;8.52;3.22;;;6.20;99.90;;;;;;5032016;28;20099;-85
2022/12/15 13:24:27;;;;;;;7.28;2.92;;;6.30;99.90;;;;;;5029169;28;20507;-85
2022/12/15 13:27:08;;;;;;;8.15;3.03;;;6.10;99.90;;;;;;5032268;28;20034;-85
2022/12/15 13:29:55;;;;;;;6.55;2.80;;;5.90;99.90;;;;;;5032137;28;20068;-85
2022/12/15 13:32:34;;;;;;;6.65;2.78;;;5.80;99.90;;;;;;5030636;28;20042;-85
2022/12/15 13:35:12;;;;;;;5.95;2.40;;;6.40;99.90;;;;;;5030970;28;20048;-85
2022/12/15 13:37:58;;;;;;;7.38;3.22;;;5.70;99.90;;;;;;5032815;28;20068;-85
2022/12/15 13:40:34;;;;;;;4.38;2.70;;;5.60;99.90;;;;;;5028267;28;20397;-85
2022/12/15 13:43:02;;;;;;;8.07;2.80;;;5.90;99.90;;;;;;5013989;28;20033;-85
2022/12/15 13:45:41;;;;;;;8.95;3.30;;;5.60;99.90;;;;;;5032537;28;20030;-84
2022/12/15 13:48:31;;;;;;;6.80;3.17;;;5.60;99.90;;;;;;5026126;28;20128;-84
2022/12/15 13:51:02;;;;;;;8.57;3.03;;;5.60;99.90;;;;;;5032450;28;20083;-85
2022/12/15 13:53:31;;;;;;;6.85;3.25;;;5.80;99.90;;;;;;5032325;28;20504;-85
2022/12/15 13:56:11;;;;;;;8.25;3.00;;;5.40;99.90;;;;;;5032188;28;20045;-85
2022/12/15 13:58:49;;;;;;;5.80;3.28;;;5.50;99.90;;;;;;5026001;28;20405;-85
2022/12/15 14:01:23;;;;;;;9.18;4.22;;;5.40;99.90;;;;;;5029972;28;20056;-86
2022/12/15 14:04:01;;;;;;;8.13;3.50;;;5.30;99.90;;;;;;5030270;28;20046;-86
2022/12/15 14:06:36;;;;;;;9.13;3.80;;;5.30;99.90;;;;;;5024748;28;20065;-86
2022/12/15 14:09:02;;;;;;;7.57;3.42;;;5.30;99.90;;;;;;5032237;28;20048;-86
2022/12/15 14:11:29;;;;;;;;;;;5.30;99.90;;;;;;5032284;28;20053;-85
2022/12/15 14:13:59;;;;;;;11.37;3.40;;;5.30;99.90;;;;;;5015611;28;19959;-85
2022/12/15 14:16:27;;;;;;;10.32;4.05;;;5.40;99.90;;;;;;5032102;28;20276;-84
2022/12/15 14:19:12;;;;;;;7.75;3.72;;;5.30;99.90;;;;;;5032816;28;20402;-84
2022/12/15 14:21:37;;;;;;;9.88;3.72;;;5.30;99.90;;;;;;5027889;28;20045;-84
2022/12/15 14:24:42;;;;;;;10.67;4.17;;;5.20;99.90;;;;;;5031924;28;20107;-85
2022/12/15 14:27:08;;;;;;;9.55;4.18;;;5.10;99.90;;;;;;5010292;28;20042;-85
2022/12/15 14:29:33;;;;;;;9.63;4.18;;;5.10;99.90;;;;;;5031326;28;20051;-85
2022/12/15 14:31:59;;;;;;;12.47;4.50;;;5.00;99.90;;;;;;5031922;28;20102;-85
2022/12/15 14:34:37;;;;;;;9.75;4.53;;;4.90;99.90;;;;;;5014862;28;20044;-84
2022/12/15 14:37:09;;;;;;;17.58;4.80;;;4.90;99.90;;;;;;5023987;28;20056;-85
2022/12/15 14:39:44;;;;;;;10.52;4.35;;;4.90;99.90;;;;;;5028189;28;20114;-85
2022/12/15 14:42:22;;;;;;;10.65;3.97;;;4.70;99.90;;;;;;5015195;28;20091;-85
2022/12/15 14:44:48;;;;;;;7.60;3.90;;;5.10;99.90;;;;;;5030183;28;20478;-85
2022/12/15 14:47:27;;;;;;;9.50;3.80;;;4.70;99.90;;;;;;5031155;28;20033;-85
2022/12/15 14:49:55;;;;;;;10.82;4.45;;;4.70;99.90;;;;;;5031293;28;20437;-85
2022/12/15 14:52:29;;;;;;;10.35;4.30;;;4.90;99.90;;;;;;5030876;28;20545;-85
2022/12/15 14:55:00;;;;;;;10.90;5.45;;;4.70;99.90;;;;;;5014867;28;20122;-85
2022/12/15 14:57:56;;;;;;;9.85;4.40;;;4.60;99.90;;;;;;5031261;28;20068;-85
2022/12/15 15:00:47;;;;;;;9.52;4.55;;;4.70;99.90;;;;;;5002919;28;20041;-85
2022/12/15 15:03:24;;;;;;;8.27;4.00;;;4.60;99.90;;;;;;5031301;28;20049;-85
2022/12/15 15:06:12;;;;;;;12.43;5.13;;;5.50;99.90;;;;;;5031816;28;20029;-85
2022/12/15 15:09:03;;;;;;;10.95;4.22;;;4.50;99.90;;;;;;5030275;28;20116;-85
2022/12/15 15:11:34;;;;;;;8.30;4.30;;;4.40;99.90;;;;;;5030830;28;20072;-85
2022/12/15 15:14:12;;;;;;;8.18;4.07;;;4.60;99.90;;;;;;5031251;28;20045;-85
2022/12/15 15:16:38;;;;;;;12.52;4.47;;;4.40;99.90;;;;;;5022190;28;20041;-85
2022/12/15 15:19:04;;;;;;;8.93;4.40;;;4.40;99.90;;;;;;5030633;28;20147;-85
2022/12/15 15:21:35;;;;;;;11.93;4.43;;;4.40;99.90;;;;;;5030186;28;20124;-85
2022/12/15 15:24:10;;;;;;;11.90;4.38;;;4.30;99.90;;;;;;5028673;28;20038;-85
2022/12/15 15:26:37;;;;;;;12.52;4.05;;;4.30;99.90;;;;;;5030367;28;20042;-85
2022/12/15 15:29:03;;;;;;;;;;;4.30;99.90;;;;;;5014877;28;20103;-85
2022/12/15 15:31:34;;;;;;;10.57;4.55;;;4.20;99.90;;;;;;5030995;28;19917;-85
2022/12/15 15:34:00;;;;;;;12.82;5.55;;;4.10;99.90;;;;;;5014747;28;20051;-84
2022/12/15 15:36:35;;;;;;;8.33;3.73;;;4.00;99.90;;;;;;5013976;28;20053;-84
2022/12/15 15:39:02;;;;;;;13.48;6.18;;;4.00;99.90;;;;;;5031142;28;20288;-84
2022/12/15 15:41:32;;;;;;;12.55;4.65;;;3.90;99.90;;;;;;5011624;28;20045;-84
2022/12/15 15:44:00;;;;;;;10.68;4.57;;;3.80;99.90;;;;;;5014858;28;20065;-85
2022/12/15 15:46:31;;;;;;;10.07;5.22;;;3.70;99.90;;;;;;5030585;28;20034;-85
2022/12/15 15:49:11;;;;;;;12.75;5.70;;;3.70;99.90;;;;;;5031208;28;20116;-85